Terminal Aerodrome Forecast
Issued by NWS

Home | Current Version | Previous Version | Text Only | Print | Product List | Glossary On
Versions: 1 2 3 4 5 6 7 8 9 10 11 12 13 14
000
FTUS45 KRIW 021158 AAA
TAFLND
TAF AMD
KLND 021158Z 0212/0312 22011KT P6SM SCT110
     FM022030 24014G24KT P6SM SCT110
     FM030100 24011KT P6SM SCT110=

USA.gov is the U.S. government's official web portal to all federal, state and local government web resources and services.